sensor_id;sensor_type;location;lat;lon;timestamp;temperature;humidity
6696;DHT22;3385;48.928;10.330;2022-08-25T00:00:19;17.00;99.90
6696;DHT22;3385;48.928;10.330;2022-08-25T00:02:48;17.00;99.90
6696;DHT22;3385;48.928;10.330;2022-08-25T00:05:14;17.00;99.90
6696;DHT22;3385;48.928;10.330;2022-08-25T00:07:40;17.00;99.90
6696;DHT22;3385;48.928;10.330;2022-08-25T00:10:06;17.00;99.90
6696;DHT22;3385;48.928;10.330;2022-08-25T00:12:32;17.00;99.90
6696;DHT22;3385;48.928;10.330;2022-08-25T00:14:58;17.00;99.90
6696;DHT22;3385;48.928;10.330;2022-08-25T00:17:24;16.90;99.90
6696;DHT22;3385;48.928;10.330;2022-08-25T00:19:49;16.90;99.90
6696;DHT22;3385;48.928;10.330;2022-08-25T00:22:15;16.90;99.90
6696;DHT22;3385;48.928;10.330;2022-08-25T00:24:41;16.90;99.90
6696;DHT22;3385;48.928;10.330;2022-08-25T00:27:08;16.80;99.90
6696;DHT22;3385;48.928;10.330;2022-08-25T00:29:36;16.80;99.90
6696;DHT22;3385;48.928;10.330;2022-08-25T00:32:03;16.70;99.90
6696;DHT22;3385;48.928;10.330;2022-08-25T00:34:35;16.70;99.90
6696;DHT22;3385;48.928;10.330;2022-08-25T00:37:03;16.60;99.90
6696;DHT22;3385;48.928;10.330;2022-08-25T00:39:32;16.60;99.90
6696;DHT22;3385;48.928;10.330;2022-08-25T00:41:58;16.60;99.90
6696;DHT22;3385;48.928;10.330;2022-08-25T00:44:26;16.60;99.90
6696;DHT22;3385;48.928;10.330;2022-08-25T00:46:55;16.60;99.90
6696;DHT22;3385;48.928;10.330;2022-08-25T00:49:44;16.60;99.90
6696;DHT22;3385;48.928;10.330;2022-08-25T00:52:17;16.60;99.90
6696;DHT22;3385;48.928;10.330;2022-08-25T00:57:17;16.50;99.90
6696;DHT22;3385;48.928;10.330;2022-08-25T00:59:43;16.50;99.90
6696;DHT22;3385;48.928;10.330;2022-08-25T01:02:10;16.50;99.90
6696;DHT22;3385;48.928;10.330;2022-08-25T01:04:36;16.40;99.90
6696;DHT22;3385;48.928;10.330;2022-08-25T01:07:02;16.40;99.90
6696;DHT22;3385;48.928;10.330;2022-08-25T01:09:29;16.30;99.90
6696;DHT22;3385;48.928;10.330;2022-08-25T01:11:59;16.30;99.90
6696;DHT22;3385;48.928;10.330;2022-08-25T01:14:26;16.30;99.90
6696;DHT22;3385;48.928;10.330;2022-08-25T01:16:53;16.30;99.90
6696;DHT22;3385;48.928;10.330;2022-08-25T01:19:20;16.20;99.90
6696;DHT22;3385;48.928;10.330;2022-08-25T01:21:49;16.20;99.90
6696;DHT22;3385;48.928;10.330;2022-08-25T01:24:36;16.20;99.90
6696;DHT22;3385;48.928;10.330;2022-08-25T01:27:03;16.10;99.90
6696;DHT22;3385;48.928;10.330;2022-08-25T01:29:30;16.10;99.90
6696;DHT22;3385;48.928;10.330;2022-08-25T01:32:03;16.10;99.90
6696;DHT22;3385;48.928;10.330;2022-08-25T01:34:32;16.00;99.90
6696;DHT22;3385;48.928;10.330;2022-08-25T01:36:59;15.90;99.90
6696;DHT22;3385;48.928;10.330;2022-08-25T01:39:27;15.90;99.90
6696;DHT22;3385;48.928;10.330;2022-08-25T01:44:31;15.80;99.90
6696;DHT22;3385;48.928;10.330;2022-08-25T01:46:57;15.70;99.90
6696;DHT22;3385;48.928;10.330;2022-08-25T01:49:23;15.70;99.90
6696;DHT22;3385;48.928;10.330;2022-08-25T01:52:06;15.70;99.90
6696;DHT22;3385;48.928;10.330;2022-08-25T01:54:34;15.70;99.90
6696;DHT22;3385;48.928;10.330;2022-08-25T01:57:00;15.60;99.90
6696;DHT22;3385;48.928;10.330;2022-08-25T01:59:27;15.60;99.90
6696;DHT22;3385;48.928;10.330;2022-08-25T02:01:53;15.60;99.90
6696;DHT22;3385;48.928;10.330;2022-08-25T02:04:19;15.50;99.90
6696;DHT22;3385;48.928;10.330;2022-08-25T02:06:44;15.50;99.90
6696;DHT22;3385;48.928;10.330;2022-08-25T02:09:14;15.40;99.90
6696;DHT22;3385;48.928;10.330;2022-08-25T02:11:42;15.30;99.90
6696;DHT22;3385;48.928;10.330;2022-08-25T02:14:09;15.40;99.90
6696;DHT22;3385;48.928;10.330;2022-08-25T02:16:37;15.40;99.90
6696;DHT22;3385;48.928;10.330;2022-08-25T02:19:05;15.40;99.90
6696;DHT22;3385;48.928;10.330;2022-08-25T02:21:32;15.40;99.90
6696;DHT22;3385;48.928;10.330;2022-08-25T02:23:58;15.40;99.90
6696;DHT22;3385;48.928;10.330;2022-08-25T02:26:24;15.40;99.90
6696;DHT22;3385;48.928;10.330;2022-08-25T02:28:51;15.40;99.90
6696;DHT22;3385;48.928;10.330;2022-08-25T02:31:20;15.30;99.90
6696;DHT22;3385;48.928;10.330;2022-08-25T02:33:46;15.20;99.90
6696;DHT22;3385;48.928;10.330;2022-08-25T02:36:12;15.20;99.90
6696;DHT22;3385;48.928;10.330;2022-08-25T02:38:40;15.10;99.90
6696;DHT22;3385;48.928;10.330;2022-08-25T02:41:14;15.10;99.90
6696;DHT22;3385;48.928;10.330;2022-08-25T02:43:41;15.10;99.90
6696;DHT22;3385;48.928;10.330;2022-08-25T02:46:09;15.10;99.90
6696;DHT22;3385;48.928;10.330;2022-08-25T02:48:38;15.00;99.90
6696;DHT22;3385;48.928;10.330;2022-08-25T02:51:05;15.10;99.90
6696;DHT22;3385;48.928;10.330;2022-08-25T02:53:32;15.00;99.90
6696;DHT22;3385;48.928;10.330;2022-08-25T02:56:00;14.90;99.90
6696;DHT22;3385;48.928;10.330;2022-08-25T02:58:27;14.80;99.90
6696;DHT22;3385;48.928;10.330;2022-08-25T03:00:53;14.80;99.90
6696;DHT22;3385;48.928;10.330;2022-08-25T03:03:20;14.70;99.90
6696;DHT22;3385;48.928;10.330;2022-08-25T03:05:46;14.70;99.90
6696;DHT22;3385;48.928;10.330;2022-08-25T03:08:12;14.60;99.90
6696;DHT22;3385;48.928;10.330;2022-08-25T03:10:38;14.60;99.90
6696;DHT22;3385;48.928;10.330;2022-08-25T03:13:04;14.60;99.90
6696;DHT22;3385;48.928;10.330;2022-08-25T03:15:30;14.50;99.90
6696;DHT22;3385;48.928;10.330;2022-08-25T03:17:56;14.50;99.90
6696;DHT22;3385;48.928;10.330;2022-08-25T03:20:23;14.40;99.90
6696;DHT22;3385;48.928;10.330;2022-08-25T03:22:49;14.30;99.90
6696;DHT22;3385;48.928;10.330;2022-08-25T03:25:15;14.30;99.90
6696;DHT22;3385;48.928;10.330;2022-08-25T03:28:00;14.40;99.90
6696;DHT22;3385;48.928;10.330;2022-08-25T03:30:27;14.40;99.90
6696;DHT22;3385;48.928;10.330;2022-08-25T03:32:54;14.30;99.90
6696;DHT22;3385;48.928;10.330;2022-08-25T03:35:20;14.30;99.90
6696;DHT22;3385;48.928;10.330;2022-08-25T03:37:46;14.50;99.90
6696;DHT22;3385;48.928;10.330;2022-08-25T03:40:13;14.60;99.90
6696;DHT22;3385;48.928;10.330;2022-08-25T03:42:41;14.60;99.90
6696;DHT22;3385;48.928;10.330;2022-08-25T03:45:08;14.60;99.90
6696;DHT22;3385;48.928;10.330;2022-08-25T03:47:36;14.60;99.90
6696;DHT22;3385;48.928;10.330;2022-08-25T03:50:04;14.60;99.90
6696;DHT22;3385;48.928;10.330;2022-08-25T03:52:30;14.50;99.90
6696;DHT22;3385;48.928;10.330;2022-08-25T03:54:56;14.50;99.90
6696;DHT22;3385;48.928;10.330;2022-08-25T03:57:21;14.50;99.90
6696;DHT22;3385;48.928;10.330;2022-08-25T03:59:47;14.60;99.90
6696;DHT22;3385;48.928;10.330;2022-08-25T04:02:13;14.60;99.90
6696;DHT22;3385;48.928;10.330;2022-08-25T04:04:38;14.70;99.90
6696;DHT22;3385;48.928;10.330;2022-08-25T04:07:05;14.70;99.90
6696;DHT22;3385;48.928;10.330;2022-08-25T04:09:31;14.70;99.90
6696;DHT22;3385;48.928;10.330;2022-08-25T04:11:57;14.60;99.90
6696;DHT22;3385;48.928;10.330;2022-08-25T04:14:23;14.60;99.90
6696;DHT22;3385;48.928;10.330;2022-08-25T04:16:49;14.50;99.90
6696;DHT22;3385;48.928;10.330;2022-08-25T04:19:15;14.50;99.90
6696;DHT22;3385;48.928;10.330;2022-08-25T04:21:41;14.50;99.90
6696;DHT22;3385;48.928;10.330;2022-08-25T04:24:09;14.50;99.90
6696;DHT22;3385;48.928;10.330;2022-08-25T04:26:39;14.50;99.90
6696;DHT22;3385;48.928;10.330;2022-08-25T04:29:07;14.50;99.90
6696;DHT22;3385;48.928;10.330;2022-08-25T04:31:37;14.50;99.90
6696;DHT22;3385;48.928;10.330;2022-08-25T04:34:05;14.50;99.90
6696;DHT22;3385;48.928;10.330;2022-08-25T04:36:32;14.50;99.90
6696;DHT22;3385;48.928;10.330;2022-08-25T04:38:58;14.60;99.90
6696;DHT22;3385;48.928;10.330;2022-08-25T04:41:24;14.70;99.90
6696;DHT22;3385;48.928;10.330;2022-08-25T04:43:51;14.80;99.90
6696;DHT22;3385;48.928;10.330;2022-08-25T04:46:20;14.80;99.90
6696;DHT22;3385;48.928;10.330;2022-08-25T04:48:48;14.90;99.90
6696;DHT22;3385;48.928;10.330;2022-08-25T04:51:17;15.00;99.90
6696;DHT22;3385;48.928;10.330;2022-08-25T04:53:44;15.00;99.90
6696;DHT22;3385;48.928;10.330;2022-08-25T04:56:13;15.00;99.90
6696;DHT22;3385;48.928;10.330;2022-08-25T04:58:40;15.10;99.90
6696;DHT22;3385;48.928;10.330;2022-08-25T05:01:08;15.10;99.90
6696;DHT22;3385;48.928;10.330;2022-08-25T05:03:35;15.20;99.90
6696;DHT22;3385;48.928;10.330;2022-08-25T05:06:02;15.30;99.90
6696;DHT22;3385;48.928;10.330;2022-08-25T05:08:28;15.30;99.90
6696;DHT22;3385;48.928;10.330;2022-08-25T05:10:54;15.30;99.90
6696;DHT22;3385;48.928;10.330;2022-08-25T05:13:22;15.30;99.90
6696;DHT22;3385;48.928;10.330;2022-08-25T05:15:52;15.30;99.90
6696;DHT22;3385;48.928;10.330;2022-08-25T05:18:20;15.40;99.90
6696;DHT22;3385;48.928;10.330;2022-08-25T05:20:46;15.40;99.90
6696;DHT22;3385;48.928;10.330;2022-08-25T05:23:12;15.40;99.90
6696;DHT22;3385;48.928;10.330;2022-08-25T05:25:38;15.50;99.90
6696;DHT22;3385;48.928;10.330;2022-08-25T05:28:03;15.60;99.90
6696;DHT22;3385;48.928;10.330;2022-08-25T05:30:29;15.70;99.90
6696;DHT22;3385;48.928;10.330;2022-08-25T05:32:55;15.70;99.90
6696;DHT22;3385;48.928;10.330;2022-08-25T05:35:21;15.80;99.90
6696;DHT22;3385;48.928;10.330;2022-08-25T05:37:47;15.90;99.90
6696;DHT22;3385;48.928;10.330;2022-08-25T05:40:13;16.00;99.90
6696;DHT22;3385;48.928;10.330;2022-08-25T05:42:39;16.10;99.90
6696;DHT22;3385;48.928;10.330;2022-08-25T05:45:05;16.20;99.90
6696;DHT22;3385;48.928;10.330;2022-08-25T05:47:32;16.30;99.90
6696;DHT22;3385;48.928;10.330;2022-08-25T05:49:57;16.30;99.90
6696;DHT22;3385;48.928;10.330;2022-08-25T05:52:26;16.40;99.90
6696;DHT22;3385;48.928;10.330;2022-08-25T05:54:52;16.50;99.90
6696;DHT22;3385;48.928;10.330;2022-08-25T05:57:18;16.60;99.90
6696;DHT22;3385;48.928;10.330;2022-08-25T05:59:44;16.70;99.90
6696;DHT22;3385;48.928;10.330;2022-08-25T06:02:09;16.80;99.90
6696;DHT22;3385;48.928;10.330;2022-08-25T06:04:53;16.90;99.90
6696;DHT22;3385;48.928;10.330;2022-08-25T06:07:19;16.90;99.90
6696;DHT22;3385;48.928;10.330;2022-08-25T06:09:45;17.10;99.90
6696;DHT22;3385;48.928;10.330;2022-08-25T06:12:13;17.20;99.90
6696;DHT22;3385;48.928;10.330;2022-08-25T06:14:39;17.30;99.90
6696;DHT22;3385;48.928;10.330;2022-08-25T06:17:05;17.40;99.90
6696;DHT22;3385;48.928;10.330;2022-08-25T06:19:31;17.50;99.90
6696;DHT22;3385;48.928;10.330;2022-08-25T06:21:57;17.50;99.90
6696;DHT22;3385;48.928;10.330;2022-08-25T06:24:27;17.70;99.90
6696;DHT22;3385;48.928;10.330;2022-08-25T06:26:53;17.80;99.90
6696;DHT22;3385;48.928;10.330;2022-08-25T06:29:19;17.90;99.90
6696;DHT22;3385;48.928;10.330;2022-08-25T06:31:46;17.90;99.90
6696;DHT22;3385;48.928;10.330;2022-08-25T06:34:12;18.00;99.90
6696;DHT22;3385;48.928;10.330;2022-08-25T06:36:38;17.20;99.90
6696;DHT22;3385;48.928;10.330;2022-08-25T06:39:04;18.20;99.90
6696;DHT22;3385;48.928;10.330;2022-08-25T06:41:30;18.20;99.90
6696;DHT22;3385;48.928;10.330;2022-08-25T06:43:57;18.30;99.90
6696;DHT22;3385;48.928;10.330;2022-08-25T06:46:24;18.40;99.90
6696;DHT22;3385;48.928;10.330;2022-08-25T06:48:54;18.50;99.90
6696;DHT22;3385;48.928;10.330;2022-08-25T06:51:21;18.60;99.90
6696;DHT22;3385;48.928;10.330;2022-08-25T06:53:48;18.70;99.90
6696;DHT22;3385;48.928;10.330;2022-08-25T06:56:15;18.80;99.90
6696;DHT22;3385;48.928;10.330;2022-08-25T06:58:41;18.80;99.90
6696;DHT22;3385;48.928;10.330;2022-08-25T07:01:19;18.80;99.90
6696;DHT22;3385;48.928;10.330;2022-08-25T07:03:48;19.00;99.90
6696;DHT22;3385;48.928;10.330;2022-08-25T07:06:16;19.00;99.90
6696;DHT22;3385;48.928;10.330;2022-08-25T07:08:43;19.00;99.90
6696;DHT22;3385;48.928;10.330;2022-08-25T07:11:10;19.10;99.90
6696;DHT22;3385;48.928;10.330;2022-08-25T07:13:36;19.10;99.90
6696;DHT22;3385;48.928;10.330;2022-08-25T07:16:03;19.10;99.90
6696;DHT22;3385;48.928;10.330;2022-08-25T07:18:30;19.20;99.90
6696;DHT22;3385;48.928;10.330;2022-08-25T07:20:57;19.40;99.90
6696;DHT22;3385;48.928;10.330;2022-08-25T07:23:23;19.50;99.90
6696;DHT22;3385;48.928;10.330;2022-08-25T07:25:49;19.70;99.90
6696;DHT22;3385;48.928;10.330;2022-08-25T07:28:16;19.90;99.90
6696;DHT22;3385;48.928;10.330;2022-08-25T07:30:42;19.90;99.90
6696;DHT22;3385;48.928;10.330;2022-08-25T07:33:08;20.10;99.90
6696;DHT22;3385;48.928;10.330;2022-08-25T07:35:36;20.30;99.90
6696;DHT22;3385;48.928;10.330;2022-08-25T07:38:03;20.50;99.90
6696;DHT22;3385;48.928;10.330;2022-08-25T07:40:32;20.60;99.90
6696;DHT22;3385;48.928;10.330;2022-08-25T07:43:05;20.80;99.90
6696;DHT22;3385;48.928;10.330;2022-08-25T07:45:34;21.00;99.90
6696;DHT22;3385;48.928;10.330;2022-08-25T07:48:03;21.10;99.90
6696;DHT22;3385;48.928;10.330;2022-08-25T07:50:30;21.20;99.90
6696;DHT22;3385;48.928;10.330;2022-08-25T07:52:57;21.20;99.90
6696;DHT22;3385;48.928;10.330;2022-08-25T07:55:24;21.30;99.90
6696;DHT22;3385;48.928;10.330;2022-08-25T07:57:54;21.40;99.90
6696;DHT22;3385;48.928;10.330;2022-08-25T08:00:21;21.50;99.90
6696;DHT22;3385;48.928;10.330;2022-08-25T08:02:47;21.70;99.90
6696;DHT22;3385;48.928;10.330;2022-08-25T08:05:14;21.70;99.90
6696;DHT22;3385;48.928;10.330;2022-08-25T08:07:40;21.80;99.90
6696;DHT22;3385;48.928;10.330;2022-08-25T08:10:08;21.90;99.90
6696;DHT22;3385;48.928;10.330;2022-08-25T08:12:35;22.00;99.90
6696;DHT22;3385;48.928;10.330;2022-08-25T08:15:01;22.10;99.90
6696;DHT22;3385;48.928;10.330;2022-08-25T08:17:27;22.20;99.90
6696;DHT22;3385;48.928;10.330;2022-08-25T08:19:52;22.20;99.90
6696;DHT22;3385;48.928;10.330;2022-08-25T08:22:18;22.40;99.90
6696;DHT22;3385;48.928;10.330;2022-08-25T08:24:45;22.50;99.90
6696;DHT22;3385;48.928;10.330;2022-08-25T08:27:12;22.60;99.90
6696;DHT22;3385;48.928;10.330;2022-08-25T08:29:40;22.70;99.90
6696;DHT22;3385;48.928;10.330;2022-08-25T08:32:08;22.80;99.90
6696;DHT22;3385;48.928;10.330;2022-08-25T08:34:34;22.90;99.90
6696;DHT22;3385;48.928;10.330;2022-08-25T08:37:01;23.10;99.90
6696;DHT22;3385;48.928;10.330;2022-08-25T08:39:28;23.20;99.90
6696;DHT22;3385;48.928;10.330;2022-08-25T08:50:19;23.60;99.90
6696;DHT22;3385;48.928;10.330;2022-08-25T08:53:02;23.70;99.90
6696;DHT22;3385;48.928;10.330;2022-08-25T08:55:31;23.70;99.90
6696;DHT22;3385;48.928;10.330;2022-08-25T08:57:59;24.10;99.90
6696;DHT22;3385;48.928;10.330;2022-08-25T09:00:28;24.30;99.90
6696;DHT22;3385;48.928;10.330;2022-08-25T09:05:45;24.60;99.90
6696;DHT22;3385;48.928;10.330;2022-08-25T09:08:12;24.30;99.90
6696;DHT22;3385;48.928;10.330;2022-08-25T09:16:19;24.30;99.90
6696;DHT22;3385;48.928;10.330;2022-08-25T09:19:22;24.40;99.90
6696;DHT22;3385;48.928;10.330;2022-08-25T09:22:15;24.50;99.90
6696;DHT22;3385;48.928;10.330;2022-08-25T09:27:50;24.70;99.90
6696;DHT22;3385;48.928;10.330;2022-08-25T09:30:20;24.80;99.90
6696;DHT22;3385;48.928;10.330;2022-08-25T09:32:48;24.90;99.90
6696;DHT22;3385;48.928;10.330;2022-08-25T09:35:20;25.00;99.90
6696;DHT22;3385;48.928;10.330;2022-08-25T09:38:04;25.00;99.90
6696;DHT22;3385;48.928;10.330;2022-08-25T09:40:33;25.00;99.90
6696;DHT22;3385;48.928;10.330;2022-08-25T09:43:01;25.20;99.90
6696;DHT22;3385;48.928;10.330;2022-08-25T09:45:42;25.30;99.90
6696;DHT22;3385;48.928;10.330;2022-08-25T09:48:33;25.30;99.90
6696;DHT22;3385;48.928;10.330;2022-08-25T09:51:20;25.40;99.90
6696;DHT22;3385;48.928;10.330;2022-08-25T09:54:04;25.90;99.90
6696;DHT22;3385;48.928;10.330;2022-08-25T09:56:55;26.10;99.90
6696;DHT22;3385;48.928;10.330;2022-08-25T09:59:26;26.40;99.90
6696;DHT22;3385;48.928;10.330;2022-08-25T10:01:53;26.50;99.90
6696;DHT22;3385;48.928;10.330;2022-08-25T10:04:34;26.30;99.90
6696;DHT22;3385;48.928;10.330;2022-08-25T10:10:17;25.90;99.90
6696;DHT22;3385;48.928;10.330;2022-08-25T10:12:47;25.70;99.90
6696;DHT22;3385;48.928;10.330;2022-08-25T10:15:20;25.60;99.90
6696;DHT22;3385;48.928;10.330;2022-08-25T10:17:49;25.80;99.90
6696;DHT22;3385;48.928;10.330;2022-08-25T10:20:22;26.00;99.90
6696;DHT22;3385;48.928;10.330;2022-08-25T10:22:48;26.30;99.90
6696;DHT22;3385;48.928;10.330;2022-08-25T10:25:23;26.70;99.90
6696;DHT22;3385;48.928;10.330;2022-08-25T10:28:14;26.80;99.90
6696;DHT22;3385;48.928;10.330;2022-08-25T10:33:57;27.20;99.90
6696;DHT22;3385;48.928;10.330;2022-08-25T10:36:31;27.40;99.90
6696;DHT22;3385;48.928;10.330;2022-08-25T10:39:01;27.20;99.90
6696;DHT22;3385;48.928;10.330;2022-08-25T10:44:28;26.90;99.90
6696;DHT22;3385;48.928;10.330;2022-08-25T10:50:03;27.60;99.90
6696;DHT22;3385;48.928;10.330;2022-08-25T11:04:17;28.30;99.90
6696;DHT22;3385;48.928;10.330;2022-08-25T11:06:54;27.90;99.90
6696;DHT22;3385;48.928;10.330;2022-08-25T11:09:29;27.70;99.90
6696;DHT22;3385;48.928;10.330;2022-08-25T11:12:01;28.20;99.90
6696;DHT22;3385;48.928;10.330;2022-08-25T11:14:44;28.50;99.90
6696;DHT22;3385;48.928;10.330;2022-08-25T11:17:12;28.50;99.90
6696;DHT22;3385;48.928;10.330;2022-08-25T11:19:43;28.40;99.90
6696;DHT22;3385;48.928;10.330;2022-08-25T11:25:10;28.10;99.90
6696;DHT22;3385;48.928;10.330;2022-08-25T11:27:51;27.90;99.90
6696;DHT22;3385;48.928;10.330;2022-08-25T11:30:20;28.30;99.90
6696;DHT22;3385;48.928;10.330;2022-08-25T11:32:48;28.90;99.90
6696;DHT22;3385;48.928;10.330;2022-08-25T11:35:17;29.30;99.90
6696;DHT22;3385;48.928;10.330;2022-08-25T11:46:38;29.90;99.90
6696;DHT22;3385;48.928;10.330;2022-08-25T11:48:55;31.00;99.90
6696;DHT22;3385;48.928;10.330;2022-08-25T11:51:41;32.00;98.70
6696;DHT22;3385;48.928;10.330;2022-08-25T11:54:35;32.40;96.70
6696;DHT22;3385;48.928;10.330;2022-08-25T11:57:17;33.10;92.10
6696;DHT22;3385;48.928;10.330;2022-08-25T12:02:37;33.70;85.10
6696;DHT22;3385;48.928;10.330;2022-08-25T12:08:45;34.50;83.60
6696;DHT22;3385;48.928;10.330;2022-08-25T12:11:03;33.60;78.80
6696;DHT22;3385;48.928;10.330;2022-08-25T12:16:43;32.30;81.80
6696;DHT22;3385;48.928;10.330;2022-08-25T12:33:19;34.80;71.10
6696;DHT22;3385;48.928;10.330;2022-08-25T12:36:06;35.30;69.10
6696;DHT22;3385;48.928;10.330;2022-08-25T12:38:47;35.50;65.10
6696;DHT22;3385;48.928;10.330;2022-08-25T12:41:31;34.60;66.30
6696;DHT22;3385;48.928;10.330;2022-08-25T12:44:32;34.40;67.50
6696;DHT22;3385;48.928;10.330;2022-08-25T12:47:12;34.40;67.40
6696;DHT22;3385;48.928;10.330;2022-08-25T12:49:49;33.60;66.60
6696;DHT22;3385;48.928;10.330;2022-08-25T12:52:17;32.20;69.90
6696;DHT22;3385;48.928;10.330;2022-08-25T12:55:05;31.50;75.50
6696;DHT22;3385;48.928;10.330;2022-08-25T12:57:55;32.70;74.50
6696;DHT22;3385;48.928;10.330;2022-08-25T13:00:34;33.80;70.60
6696;DHT22;3385;48.928;10.330;2022-08-25T13:06:10;34.60;65.40
6696;DHT22;3385;48.928;10.330;2022-08-25T13:11:43;34.50;63.10
6696;DHT22;3385;48.928;10.330;2022-08-25T13:14:24;32.90;67.10
6696;DHT22;3385;48.928;10.330;2022-08-25T13:16:58;32.50;70.40
6696;DHT22;3385;48.928;10.330;2022-08-25T13:19:25;31.90;72.80
6696;DHT22;3385;48.928;10.330;2022-08-25T13:21:53;32.10;70.80
6696;DHT22;3385;48.928;10.330;2022-08-25T13:24:33;32.10;70.40
6696;DHT22;3385;48.928;10.330;2022-08-25T13:27:03;31.40;71.60
6696;DHT22;3385;48.928;10.330;2022-08-25T13:29:32;30.90;75.00
6696;DHT22;3385;48.928;10.330;2022-08-25T13:32:00;31.90;71.50
6696;DHT22;3385;48.928;10.330;2022-08-25T13:34:35;33.20;69.50
6696;DHT22;3385;48.928;10.330;2022-08-25T13:37:15;33.70;67.20
6696;DHT22;3385;48.928;10.330;2022-08-25T13:42:35;34.30;63.90
6696;DHT22;3385;48.928;10.330;2022-08-25T13:45:05;34.00;65.70
6696;DHT22;3385;48.928;10.330;2022-08-25T13:47:37;34.80;64.20
6696;DHT22;3385;48.928;10.330;2022-08-25T13:52:40;35.90;60.90
6696;DHT22;3385;48.928;10.330;2022-08-25T13:55:06;36.00;59.20
6696;DHT22;3385;48.928;10.330;2022-08-25T13:57:32;36.70;58.20
6696;DHT22;3385;48.928;10.330;2022-08-25T14:00:09;37.20;56.90
6696;DHT22;3385;48.928;10.330;2022-08-25T14:02:49;37.30;55.50
6696;DHT22;3385;48.928;10.330;2022-08-25T14:08:01;37.40;55.30
6696;DHT22;3385;48.928;10.330;2022-08-25T14:10:41;38.00;54.30
6696;DHT22;3385;48.928;10.330;2022-08-25T14:13:14;38.10;52.20
6696;DHT22;3385;48.928;10.330;2022-08-25T14:15:42;38.00;52.40
6696;DHT22;3385;48.928;10.330;2022-08-25T14:18:21;37.80;52.80
6696;DHT22;3385;48.928;10.330;2022-08-25T14:20:52;38.10;50.50
6696;DHT22;3385;48.928;10.330;2022-08-25T14:23:21;38.30;50.90
6696;DHT22;3385;48.928;10.330;2022-08-25T14:25:50;37.90;51.50
6696;DHT22;3385;48.928;10.330;2022-08-25T14:28:19;37.60;51.80
6696;DHT22;3385;48.928;10.330;2022-08-25T14:30:51;37.40;51.90
6696;DHT22;3385;48.928;10.330;2022-08-25T14:33:21;35.60;53.50
6696;DHT22;3385;48.928;10.330;2022-08-25T14:35:49;34.70;55.50
6696;DHT22;3385;48.928;10.330;2022-08-25T14:38:16;34.50;57.20
6696;DHT22;3385;48.928;10.330;2022-08-25T14:40:42;35.60;55.00
6696;DHT22;3385;48.928;10.330;2022-08-25T14:43:09;36.40;54.60
6696;DHT22;3385;48.928;10.330;2022-08-25T14:45:41;37.00;54.00
6696;DHT22;3385;48.928;10.330;2022-08-25T14:48:11;37.30;51.60
6696;DHT22;3385;48.928;10.330;2022-08-25T14:50:38;36.70;51.90
6696;DHT22;3385;48.928;10.330;2022-08-25T14:53:06;36.80;52.80
6696;DHT22;3385;48.928;10.330;2022-08-25T14:55:32;37.10;52.30
6696;DHT22;3385;48.928;10.330;2022-08-25T14:57:58;37.20;52.90
6696;DHT22;3385;48.928;10.330;2022-08-25T15:00:24;38.00;51.40
6696;DHT22;3385;48.928;10.330;2022-08-25T15:02:50;38.30;50.60
6696;DHT22;3385;48.928;10.330;2022-08-25T15:05:20;38.50;50.00
6696;DHT22;3385;48.928;10.330;2022-08-25T15:07:49;38.20;48.40
6696;DHT22;3385;48.928;10.330;2022-08-25T15:10:34;37.90;49.00
6696;DHT22;3385;48.928;10.330;2022-08-25T15:13:00;37.50;50.90
6696;DHT22;3385;48.928;10.330;2022-08-25T15:15:25;37.60;50.10
6696;DHT22;3385;48.928;10.330;2022-08-25T15:17:53;37.50;50.60
6696;DHT22;3385;48.928;10.330;2022-08-25T15:20:19;37.50;50.70
6696;DHT22;3385;48.928;10.330;2022-08-25T15:22:45;37.50;50.30
6696;DHT22;3385;48.928;10.330;2022-08-25T15:25:12;37.60;49.80
6696;DHT22;3385;48.928;10.330;2022-08-25T15:27:38;37.60;48.90
6696;DHT22;3385;48.928;10.330;2022-08-25T15:30:05;37.20;50.00
6696;DHT22;3385;48.928;10.330;2022-08-25T15:32:31;37.10;50.60
6696;DHT22;3385;48.928;10.330;2022-08-25T15:34:58;37.10;50.30
6696;DHT22;3385;48.928;10.330;2022-08-25T15:37:24;36.90;51.00
6696;DHT22;3385;48.928;10.330;2022-08-25T15:39:50;36.60;50.20
6696;DHT22;3385;48.928;10.330;2022-08-25T15:42:16;36.40;50.50
6696;DHT22;3385;48.928;10.330;2022-08-25T15:44:42;36.00;50.50
6696;DHT22;3385;48.928;10.330;2022-08-25T15:47:08;34.70;51.60
6696;DHT22;3385;48.928;10.330;2022-08-25T15:49:34;33.40;54.60
6696;DHT22;3385;48.928;10.330;2022-08-25T15:52:01;32.20;56.00
6696;DHT22;3385;48.928;10.330;2022-08-25T15:54:28;31.10;59.50
6696;DHT22;3385;48.928;10.330;2022-08-25T15:56:55;31.10;62.60
6696;DHT22;3385;48.928;10.330;2022-08-25T15:59:21;31.60;66.60
6696;DHT22;3385;48.928;10.330;2022-08-25T16:01:47;32.30;64.90
6696;DHT22;3385;48.928;10.330;2022-08-25T16:04:17;32.80;61.90
6696;DHT22;3385;48.928;10.330;2022-08-25T16:06:43;33.20;61.70
6696;DHT22;3385;48.928;10.330;2022-08-25T16:09:09;33.40;61.30
6696;DHT22;3385;48.928;10.330;2022-08-25T16:11:35;33.60;60.80
6696;DHT22;3385;48.928;10.330;2022-08-25T16:14:03;33.60;60.90
6696;DHT22;3385;48.928;10.330;2022-08-25T16:16:30;33.70;60.00
6696;DHT22;3385;48.928;10.330;2022-08-25T16:18:56;33.60;59.50
6696;DHT22;3385;48.928;10.330;2022-08-25T16:21:25;33.40;60.70
6696;DHT22;3385;48.928;10.330;2022-08-25T16:23:53;33.40;59.70
6696;DHT22;3385;48.928;10.330;2022-08-25T16:26:20;33.20;60.60
6696;DHT22;3385;48.928;10.330;2022-08-25T16:28:46;33.00;60.90
6696;DHT22;3385;48.928;10.330;2022-08-25T16:31:13;32.80;61.60
6696;DHT22;3385;48.928;10.330;2022-08-25T16:33:40;32.50;62.60
6696;DHT22;3385;48.928;10.330;2022-08-25T16:36:08;32.30;63.60
6696;DHT22;3385;48.928;10.330;2022-08-25T16:38:35;32.20;63.80
6696;DHT22;3385;48.928;10.330;2022-08-25T16:41:08;32.10;64.00
6696;DHT22;3385;48.928;10.330;2022-08-25T16:43:34;31.80;63.80
6696;DHT22;3385;48.928;10.330;2022-08-25T16:46:02;30.90;68.30
6696;DHT22;3385;48.928;10.330;2022-08-25T16:48:29;30.00;73.60
6696;DHT22;3385;48.928;10.330;2022-08-25T16:50:55;29.40;77.00
6696;DHT22;3385;48.928;10.330;2022-08-25T16:53:21;29.10;81.30
6696;DHT22;3385;48.928;10.330;2022-08-25T16:56:05;29.20;80.80
6696;DHT22;3385;48.928;10.330;2022-08-25T16:58:32;29.50;80.10
6696;DHT22;3385;48.928;10.330;2022-08-25T17:01:05;29.80;79.30
6696;DHT22;3385;48.928;10.330;2022-08-25T17:03:33;29.80;76.50
6696;DHT22;3385;48.928;10.330;2022-08-25T17:05:58;29.90;75.50
6696;DHT22;3385;48.928;10.330;2022-08-25T17:08:24;30.10;76.80
6696;DHT22;3385;48.928;10.330;2022-08-25T17:11:04;30.10;75.60
6696;DHT22;3385;48.928;10.330;2022-08-25T17:13:31;30.10;75.60
6696;DHT22;3385;48.928;10.330;2022-08-25T17:15:57;29.90;76.60
6696;DHT22;3385;48.928;10.330;2022-08-25T17:18:23;29.80;76.60
6696;DHT22;3385;48.928;10.330;2022-08-25T17:21:01;29.70;76.40
6696;DHT22;3385;48.928;10.330;2022-08-25T17:23:27;29.60;76.70
6696;DHT22;3385;48.928;10.330;2022-08-25T17:25:53;29.50;76.20
6696;DHT22;3385;48.928;10.330;2022-08-25T17:28:19;29.30;77.20
6696;DHT22;3385;48.928;10.330;2022-08-25T17:30:45;29.10;78.40
6696;DHT22;3385;48.928;10.330;2022-08-25T17:33:11;29.00;77.90
6696;DHT22;3385;48.928;10.330;2022-08-25T17:35:40;29.00;78.30